Time;durP1;ratioP1;P1;durP2;ratioP2;P2;SDS_P1;SDS_P2;PMS_P1;PMS_P2;Temp;Humidity;BMP_temperature;BMP_pressure;BME280_temperature;BME280_humidity;BME280_pressure;Samples;Min_cycle;Max_cycle;Signal;HPM_P1;HPM_P2
2020/12/01 00:01:34;;;;;;;94.83;37.60;;;;;;;-1.18;75.95;97775.24;1809190;77;26116;-80
2020/12/01 00:04:01;;;;;;;91.72;38.10;;;;;;;-1.12;76.02;97770.77;1796406;78;25739;-80
2020/12/01 00:06:32;;;;;;;88.72;36.38;;;;;;;-1.06;76.00;97769.88;1791724;77;25439;-80
2020/12/01 00:08:59;;;;;;;87.05;36.50;;;;;;;-1.02;75.96;97764.68;1778502;78;26446;-79
2020/12/01 00:11:27;;;;;;;88.47;35.28;;;;;;;-1.14;75.78;97764.75;1790207;77;27522;-81
2020/12/01 00:13:54;;;;;;;89.55;37.78;;;;;;;-1.17;75.84;97763.68;1786133;78;26255;-80
2020/12/01 00:16:21;;;;;;;88.45;37.10;;;;;;;-1.14;75.91;97763.43;1819275;78;25888;-81
2020/12/01 00:18:49;;;;;;;75.92;33.40;;;;;;;-1.15;75.88;97757.77;1819679;77;25782;-80
2020/12/01 00:21:20;;;;;;;79.15;33.88;;;;;;;-1.16;75.85;97758.74;1812981;78;25888;-81
2020/12/01 00:23:48;;;;;;;75.97;35.10;;;;;;;-1.15;75.93;97755.13;1784556;78;27522;-80
2020/12/01 00:26:18;;;;;;;72.47;32.40;;;;;;;-1.11;75.98;97753.91;1803260;78;26360;-80
2020/12/01 00:28:47;;;;;;;69.95;31.37;;;;;;;-1.07;75.93;97751.81;1785883;78;26486;-80
2020/12/01 00:31:15;;;;;;;74.42;32.25;;;;;;;-1.06;75.85;97755.30;1795115;78;26066;-80
2020/12/01 00:33:43;;;;;;;77.10;31.65;;;;;;;-1.01;75.88;97753.11;1792140;78;25881;-81
2020/12/01 00:36:10;;;;;;;75.08;32.35;;;;;;;-1.05;75.74;97755.66;1814725;78;27541;-81
2020/12/01 00:38:37;;;;;;;80.65;33.10;;;;;;;-1.06;75.84;97756.62;1803495;78;26310;-81
2020/12/01 00:41:05;;;;;;;77.75;33.88;;;;;;;-0.98;75.92;97760.81;1784227;78;25782;-80
2020/12/01 00:43:32;;;;;;;81.75;34.70;;;;;;;-0.92;75.87;97753.64;1803573;78;25719;-81
2020/12/01 00:46:00;;;;;;;81.45;33.73;;;;;;;-0.88;75.84;97761.70;1803143;78;26585;-80
2020/12/01 00:48:27;;;;;;;77.90;33.63;;;;;;;-0.91;75.73;97757.98;1783567;78;27554;-80
2020/12/01 00:50:55;;;;;;;74.45;33.75;;;;;;;-0.99;75.71;97761.30;1776142;78;26377;-80
2020/12/01 00:53:22;;;;;;;77.15;34.13;;;;;;;-0.99;75.80;97757.80;1785316;78;25702;-80
2020/12/01 00:55:49;;;;;;;92.12;38.23;;;;;;;-0.97;75.85;97754.06;1793415;78;25862;-83
2020/12/01 00:58:16;;;;;;;85.03;37.42;;;;;;;-0.93;75.83;97758.59;1793276;78;26262;-81
2020/12/01 01:00:45;;;;;;;81.78;35.40;;;;;;;-0.91;75.82;97756.66;1803222;78;27581;-82
2020/12/01 01:03:13;;;;;;;78.80;35.88;;;;;;;-0.90;75.82;97759.17;1805661;77;26341;-80
2020/12/01 01:05:40;;;;;;;80.62;35.05;;;;;;;-0.86;75.83;97753.13;1799728;78;25894;-80
2020/12/01 01:08:07;;;;;;;81.53;34.85;;;;;;;-0.81;75.81;97755.73;1825531;78;26072;-82
2020/12/01 01:10:35;;;;;;;77.10;33.40;;;;;;;-0.80;75.69;97753.92;1802383;78;25760;-81
2020/12/01 01:13:04;;;;;;;94.25;37.40;;;;;;;-0.88;75.59;97752.42;1810197;78;27553;-82
2020/12/01 01:15:35;;;;;;;81.57;34.60;;;;;;;-0.89;75.64;97754.23;1792740;78;25794;-82
2020/12/01 01:18:03;;;;;;;83.82;35.45;;;;;;;-0.92;75.63;97755.81;1792801;78;25732;-81
2020/12/01 01:20:31;;;;;;;84.95;34.98;;;;;;;-0.95;75.65;97752.58;1792819;78;25799;-81
2020/12/01 01:22:59;;;;;;;74.22;31.30;;;;;;;-0.95;75.75;97749.92;1792792;78;25885;-81
2020/12/01 01:25:26;;;;;;;76.12;31.52;;;;;;;-0.95;75.72;97753.90;1815793;78;27494;-83
2020/12/01 01:27:54;;;;;;;62.80;29.00;;;;;;;-0.95;75.71;97753.90;1805133;78;26422;-81
2020/12/01 01:30:25;;;;;;;61.90;28.30;;;;;;;-0.97;75.69;97751.41;1802413;78;26217;-82
2020/12/01 01:32:53;;;;;;;61.25;28.12;;;;;;;-0.98;75.68;97748.89;1790813;78;25757;-81
2020/12/01 01:35:20;;;;;;;59.75;27.62;;;;;;;-0.98;75.74;97751.54;1811933;78;25538;-81
2020/12/01 01:37:48;;;;;;;61.10;27.05;;;;;;;-1.00;75.79;97742.39;1793812;78;27517;-81
2020/12/01 01:40:26;;;;;;;55.58;25.20;;;;;;;-1.01;75.79;97738.54;1792761;78;25723;-81
2020/12/01 01:42:53;;;;;;;58.95;27.17;;;;;;;-0.99;75.82;97735.28;1792863;78;25858;-83
2020/12/01 01:45:47;;;;;;;50.78;23.80;;;;;;;-0.93;75.86;97734.73;1811471;78;26395;-81
2020/12/01 01:48:25;;;;;;;62.10;26.10;;;;;;;-0.95;75.78;97728.73;1813652;78;25836;-81
2020/12/01 01:51:05;;;;;;;55.58;25.52;;;;;;;-1.00;75.76;97733.11;1792869;78;28430;-82
2020/12/01 01:53:38;;;;;;;60.40;26.17;;;;;;;-0.96;75.81;97727.05;1807162;78;26598;-81
2020/12/01 01:56:09;;;;;;;57.48;24.67;;;;;;;-0.92;75.82;97732.45;1809407;78;25748;-82
2020/12/01 01:58:40;;;;;;;60.00;26.90;;;;;;;-0.90;75.76;97729.19;1792767;78;25755;-81
2020/12/01 02:03:57;;;;;;;61.23;25.92;;;;;;;-0.82;75.66;97718.27;1872917;76;34722;-84
2020/12/01 02:06:33;;;;;;;52.10;24.67;;;;;;;-0.85;75.57;97713.73;1834452;77;25815;-82
2020/12/01 02:09:08;;;;;;;57.67;25.48;;;;;;;-0.86;75.44;97714.70;1818719;77;28458;-83
2020/12/01 02:11:39;;;;;;;57.98;27.27;;;;;;;-0.90;75.40;97713.28;1837299;76;25714;-82
2020/12/01 02:14:35;;;;;;;62.00;27.20;;;;;;;-0.93;75.33;97705.59;1816772;77;25872;-82
2020/12/01 02:17:28;;;;;;;57.17;28.57;;;;;;;-0.96;75.25;97708.02;1818802;76;25823;-83
2020/12/01 02:20:01;;;;;;;76.22;30.68;;;;;;;-1.06;75.18;97702.31;1818948;77;25714;-81
2020/12/01 02:22:28;;;;;;;;;;;;;;;-1.09;75.19;97706.90;1826546;76;28533;-84
2020/12/01 02:24:57;;;;;;;64.65;27.82;;;;;;;-1.09;75.09;97700.28;1836874;77;26413;-82
2020/12/01 02:27:27;;;;;;;75.80;31.25;;;;;;;-1.17;75.01;97697.45;1818744;77;25735;-82
2020/12/01 02:29:59;;;;;;;71.00;31.27;;;;;;;-1.23;75.05;97699.32;1818748;78;25369;-82
2020/12/01 02:32:28;;;;;;;67.73;29.33;;;;;;;-1.26;74.95;97700.06;1819016;77;26406;-82
2020/12/01 02:34:59;;;;;;;75.65;32.03;;;;;;;-1.40;74.83;97698.58;1818814;77;27505;-82
2020/12/01 02:37:29;;;;;;;63.70;28.55;;;;;;;-1.45;74.89;97698.95;1818661;76;25962;-81
2020/12/01 02:40:00;;;;;;;61.63;26.68;;;;;;;-1.57;74.86;97696.53;1834660;77;25713;-82
2020/12/01 02:42:27;;;;;;;57.85;26.62;;;;;;;-1.57;75.04;97696.02;1818740;77;25745;-81
2020/12/01 02:44:58;;;;;;;75.80;32.35;;;;;;;-1.61;75.07;97699.07;1818807;76;25320;-82
2020/12/01 02:47:27;;;;;;;72.90;30.52;;;;;;;-1.61;75.05;97701.23;1832749;76;28452;-82
2020/12/01 02:49:54;;;;;;;62.73;27.40;;;;;;;-1.72;74.68;97701.77;1819900;77;25730;-82
2020/12/01 02:52:23;;;;;;;61.48;27.55;;;;;;;-1.78;74.73;97702.27;1818700;77;25809;-83
2020/12/01 02:54:51;;;;;;;76.42;31.05;;;;;;;-1.83;74.73;97699.55;1818598;76;25826;-83
2020/12/01 02:57:19;;;;;;;65.40;27.50;;;;;;;-1.85;74.77;97704.12;1818775;77;25796;-83
2020/12/01 02:59:47;;;;;;;68.67;28.10;;;;;;;-1.85;74.67;97702.80;1818680;77;27501;-83
2020/12/01 03:02:14;;;;;;;63.42;26.57;;;;;;;-1.95;74.39;97705.01;1816966;77;25678;-83
2020/12/01 03:04:42;;;;;;;85.12;30.60;;;;;;;-2.01;74.46;97702.38;1810203;77;25897;-83
2020/12/01 03:07:09;;;;;;;64.97;26.42;;;;;;;-2.03;74.44;97701.65;1809889;77;25802;-83
2020/12/01 03:09:36;;;;;;;69.75;28.07;;;;;;;-2.07;74.42;97694.95;1824827;77;25738;-84
2020/12/01 03:12:04;;;;;;;58.83;26.05;;;;;;;-2.08;74.47;97689.78;1838314;77;27455;-83
2020/12/01 03:14:31;;;;;;;104.92;35.63;;;;;;;-2.22;74.28;97696.20;1812286;77;25738;-84
2020/12/01 03:16:58;;;;;;;62.30;26.75;;;;;;;-2.26;74.29;97690.80;1827262;77;26345;-82
2020/12/01 03:19:26;;;;;;;56.25;24.18;;;;;;;-2.32;74.21;97696.59;1827946;77;25639;-82
2020/12/01 03:21:53;;;;;;;58.87;24.52;;;;;;;-2.44;74.23;97691.81;1820751;77;26040;-81
2020/12/01 03:24:20;;;;;;;52.90;23.02;;;;;;;-2.53;74.37;97687.25;1809057;77;27554;-82
2020/12/01 03:26:47;;;;;;;56.73;22.73;;;;;;;-2.52;74.44;97690.73;1809477;77;25881;-82
2020/12/01 03:29:15;;;;;;;58.92;24.02;;;;;;;-2.57;74.22;97691.13;1822644;77;25834;-82
2020/12/01 03:31:42;;;;;;;54.83;23.52;;;;;;;-2.73;73.87;97699.91;1830005;77;26213;-83
2020/12/01 03:34:10;;;;;;;58.05;24.57;;;;;;;-2.85;73.96;97697.75;1809483;77;25853;-82
2020/12/01 03:36:37;;;;;;;60.28;25.25;;;;;;;-2.86;74.20;97701.35;1808969;77;27613;-82
2020/12/01 03:39:05;;;;;;;71.05;26.73;;;;;;;-2.83;74.33;97697.64;1809475;77;25647;-83
2020/12/01 03:41:33;;;;;;;61.83;25.72;;;;;;;-2.81;74.29;97693.08;1832422;77;25765;-82
2020/12/01 03:44:01;;;;;;;61.13;24.27;;;;;;;-2.83;74.14;97701.12;1809578;77;26284;-83
2020/12/01 03:46:28;;;;;;;50.83;24.23;;;;;;;-2.89;73.96;97702.91;1808875;77;25812;-81
2020/12/01 03:48:58;;;;;;;55.40;24.00;;;;;;;-2.93;73.95;97706.29;1824052;77;28447;-82
2020/12/01 03:51:28;;;;;;;62.10;25.97;;;;;;;-2.98;73.95;97697.88;1839967;77;25749;-83
2020/12/01 03:53:56;;;;;;;60.30;25.10;;;;;;;-2.99;73.92;97701.95;1808631;77;26331;-81
2020/12/01 03:56:23;;;;;;;59.10;22.87;;;;;;;-3.03;73.75;97689.97;1809297;77;26665;-81
2020/12/01 03:58:51;;;;;;;56.65;23.40;;;;;;;-3.11;73.72;97689.23;1824694;77;25828;-84
2020/12/01 04:01:18;;;;;;;48.08;23.52;;;;;;;-3.16;73.76;97689.25;1809043;77;27424;-82
2020/12/01 04:03:46;;;;;;;55.70;21.93;;;;;;;-3.20;73.73;97688.63;1809196;77;25692;-83
2020/12/01 04:06:13;;;;;;;52.33;22.80;;;;;;;-3.24;73.72;97680.58;1809445;77;25696;-83
2020/12/01 04:08:40;;;;;;;49.85;22.27;;;;;;;-3.26;73.72;97685.97;1812647;77;25755;-82
2020/12/01 04:11:08;;;;;;;54.50;21.77;;;;;;;-3.29;73.63;97686.23;1821393;77;25734;-82
2020/12/01 04:13:35;;;;;;;49.73;21.37;;;;;;;-3.33;73.53;97682.14;1792572;77;27551;-83
2020/12/01 04:16:03;;;;;;;50.40;22.25;;;;;;;-3.40;73.39;97678.31;1809076;77;25695;-83
2020/12/01 04:18:30;;;;;;;60.92;25.10;;;;;;;-3.45;73.29;97680.92;1832546;77;25791;-82
2020/12/01 04:20:57;;;;;;;64.72;26.60;;;;;;;-3.52;73.18;97677.09;1832311;77;26341;-81
2020/12/01 04:23:25;;;;;;;67.58;28.47;;;;;;;-3.60;73.04;97677.66;1823300;77;25914;-82
2020/12/01 04:25:52;;;;;;;68.07;28.83;;;;;;;-3.64;73.08;97679.71;1815610;77;26742;-82
2020/12/01 04:28:20;;;;;;;67.12;26.87;;;;;;;-3.68;72.99;97673.45;1837411;77;26092;-82
2020/12/01 04:30:47;;;;;;;66.30;28.55;;;;;;;-3.76;72.92;97671.41;1814040;77;26224;-82
2020/12/01 04:33:15;;;;;;;55.85;26.25;;;;;;;-3.80;72.86;97671.74;1823170;77;26229;-82
2020/12/01 04:35:42;;;;;;;61.00;27.48;;;;;;;-3.93;72.76;97668.34;1818337;77;25797;-82
2020/12/01 04:38:09;;;;;;;67.60;29.35;;;;;;;-4.05;72.81;97668.31;1809031;77;27499;-82
2020/12/01 04:40:40;;;;;;;70.85;30.00;;;;;;;-4.08;73.04;97666.38;1809068;77;25817;-82
2020/12/01 04:43:15;;;;;;;71.00;28.83;;;;;;;-4.08;73.15;97669.84;1825152;77;25689;-83
2020/12/01 04:45:46;;;;;;;70.87;30.92;;;;;;;-4.07;73.18;97670.69;1809617;77;26077;-82
2020/12/01 04:48:40;;;;;;;72.62;28.47;;;;;;;-4.15;72.96;97660.73;1825100;77;25274;-84
2020/12/01 04:51:19;;;;;;;67.25;28.32;;;;;;;-4.31;72.90;97661.49;1810894;77;27472;-82
2020/12/01 04:53:52;;;;;;;62.53;28.30;;;;;;;-4.37;72.93;97672.03;1820700;77;25723;-81
2020/12/01 04:56:28;;;;;;;74.10;27.98;;;;;;;-4.49;72.93;97669.45;1810436;77;25790;-83
2020/12/01 04:59:19;;;;;;;59.93;26.90;;;;;;;-4.61;72.99;97666.39;1824881;77;25622;-82
2020/12/01 05:02:12;;;;;;;64.32;26.90;;;;;;;-4.66;73.21;97657.96;1825270;77;25792;-84
2020/12/01 05:05:01;;;;;;;60.45;26.68;;;;;;;-4.79;73.07;97664.11;1758803;77;28528;-82
2020/12/01 05:08:07;;;;;;;61.18;27.65;;;;;;;-4.91;73.20;97664.15;1738459;77;26207;-82
2020/12/01 05:10:32;;;;;;;65.40;27.07;;;;;;;-5.00;73.31;97666.13;1789290;77;26408;-81
2020/12/01 05:13:04;;;;;;;67.90;27.67;;;;;;;-4.95;73.48;97667.97;1795400;77;25351;-82
2020/12/01 05:15:35;;;;;;;79.45;27.85;;;;;;;-4.96;73.38;97660.55;1776785;79;25751;-81
2020/12/01 05:18:20;;;;;;;76.12;28.20;;;;;;;-4.92;73.45;97663.78;1768943;77;28720;-82
2020/12/01 05:21:04;;;;;;;77.22;29.25;;;;;;;-4.90;73.38;97661.41;1793491;77;25807;-81
2020/12/01 05:23:40;;;;;;;76.85;28.32;;;;;;;-4.90;73.34;97665.36;1793049;77;25838;-81
2020/12/01 05:26:11;;;;;;;65.97;25.92;;;;;;;-4.97;73.16;97670.71;1793460;77;25785;-81
2020/12/01 05:28:55;;;;;;;70.27;27.23;;;;;;;-5.00;73.20;97668.28;1790590;77;25855;-81
2020/12/01 05:31:27;;;;;;;66.97;26.57;;;;;;;-4.98;73.19;97666.39;1788629;77;27547;-85
2020/12/01 05:34:02;;;;;;;;;;;;;;;-4.97;73.14;97669.39;1770019;79;25765;-82
2020/12/01 05:36:37;;;;;;;69.00;27.90;;;;;;;-4.99;73.00;97672.61;1780091;78;25369;-82
2020/12/01 05:39:18;;;;;;;64.05;28.05;;;;;;;-5.02;72.95;97675.45;1764538;77;25810;-81
2020/12/01 05:42:07;;;;;;;68.87;28.62;;;;;;;-5.05;72.96;97675.66;1793102;77;25827;-82
2020/12/01 05:44:35;;;;;;;68.92;29.52;;;;;;;-5.07;72.91;97670.16;1760354;79;28478;-81
2020/12/01 05:47:08;;;;;;;58.25;27.35;;;;;;;-5.12;72.83;97673.10;1776807;77;25383;-81
2020/12/01 05:50:04;;;;;;;55.08;25.85;;;;;;;-5.16;72.82;97664.57;1768261;78;25598;-82
2020/12/01 05:52:45;;;;;;;53.42;23.73;;;;;;;-5.20;72.79;97672.34;1763758;79;25772;-82
2020/12/01 05:55:24;;;;;;;59.05;26.40;;;;;;;-5.27;72.70;97670.22;1791092;77;25751;-81
2020/12/01 05:58:12;;;;;;;58.28;25.95;;;;;;;-5.29;72.68;97670.80;1772890;77;27488;-81
2020/12/01 06:00:43;;;;;;;60.90;29.27;;;;;;;-5.29;72.66;97666.84;1743282;79;26028;-81
2020/12/01 06:03:22;;;;;;;73.02;30.48;;;;;;;-5.32;72.57;97677.61;1742782;79;25800;-82
2020/12/01 06:05:53;;;;;;;68.72;30.00;;;;;;;-5.33;72.57;97675.92;1754966;80;25819;-82
2020/12/01 06:08:35;;;;;;;57.33;26.10;;;;;;;-5.34;72.52;97670.30;1746485;80;25798;-82
2020/12/01 06:11:36;;;;;;;83.70;35.38;;;;;;;-5.37;72.54;97673.12;1746335;80;28582;-82
2020/12/01 06:14:38;;;;;;;86.73;36.37;;;;;;;-5.41;72.55;97672.97;1773804;79;26366;-82
2020/12/01 06:17:16;;;;;;;80.03;35.28;;;;;;;-5.50;72.47;97674.45;1809173;77;25811;-82
2020/12/01 06:20:10;;;;;;;117.70;45.65;;;;;;;-5.70;72.38;97672.36;1809373;77;25867;-85
2020/12/01 06:23:05;;;;;;;132.25;49.75;;;;;;;-5.75;72.57;97673.12;1694268;82;25818;-82
2020/12/01 06:25:50;;;;;;;128.45;49.95;;;;;;;-5.75;72.62;97674.44;1778902;77;27493;-81
2020/12/01 06:28:58;;;;;;;109.22;43.50;;;;;;;-5.76;72.66;97676.23;1809285;77;25824;-82
2020/12/01 06:31:33;;;;;;;101.45;41.02;;;;;;;-5.79;72.67;97677.74;1795356;77;25761;-82
2020/12/01 06:34:35;;;;;;;101.10;43.33;;;;;;;-5.84;72.71;97677.23;1809382;77;25773;-81
2020/12/01 06:37:31;;;;;;;107.37;42.95;;;;;;;-5.80;72.68;97677.41;1809419;77;25787;-80
2020/12/01 06:40:10;;;;;;;112.57;47.00;;;;;;;-5.81;72.61;97677.03;1809165;77;27566;-81
2020/12/01 06:43:00;;;;;;;121.22;49.03;;;;;;;-5.83;72.57;97678.45;1809159;77;25732;-80
2020/12/01 06:45:39;;;;;;;119.37;52.10;;;;;;;-5.87;72.49;97670.86;1809440;77;26183;-80
2020/12/01 06:48:12;;;;;;;131.25;53.02;;;;;;;-5.89;72.60;97664.42;1809094;77;26443;-84
2020/12/01 06:50:47;;;;;;;114.28;48.45;;;;;;;-5.91;72.61;97664.98;1809147;77;26060;-80
2020/12/01 06:53:26;;;;;;;124.60;53.50;;;;;;;-5.96;72.49;97658.38;1832864;77;27486;-81
2020/12/01 06:56:00;;;;;;;137.40;56.18;;;;;;;-6.06;72.46;97661.25;1808819;77;25782;-80
2020/12/01 06:58:32;;;;;;;141.75;60.10;;;;;;;-6.08;72.58;97652.63;1809632;77;25712;-82
2020/12/01 07:01:08;;;;;;;146.82;59.88;;;;;;;-6.07;72.61;97649.90;1808348;77;25799;-81
2020/12/01 07:03:36;;;;;;;146.32;57.85;;;;;;;-6.04;72.64;97652.80;1809474;77;25746;-81
2020/12/01 07:06:22;;;;;;;136.22;59.38;;;;;;;-6.11;72.56;97651.51;1809483;78;27490;-81
2020/12/01 07:08:49;;;;;;;139.20;59.05;;;;;;;-6.13;72.63;97653.39;1803004;77;26179;-81
2020/12/01 07:11:33;;;;;;;143.15;62.00;;;;;;;-6.08;72.66;97659.20;1809590;77;26045;-81
2020/12/01 07:14:06;;;;;;;141.18;61.55;;;;;;;-6.03;72.70;97659.24;1829984;77;25848;-83
2020/12/01 07:16:44;;;;;;;136.07;58.83;;;;;;;-6.05;72.56;97662.47;1809240;77;25830;-82
2020/12/01 07:19:19;;;;;;;147.95;67.80;;;;;;;-6.05;72.68;97656.38;1809106;77;28468;-82
2020/12/01 07:22:23;;;;;;;163.10;72.55;;;;;;;-5.99;72.79;97655.95;1809474;77;25820;-82
2020/12/01 07:25:05;;;;;;;148.35;65.20;;;;;;;-5.95;72.65;97660.91;1794836;78;25783;-81
2020/12/01 07:27:38;;;;;;;140.37;60.48;;;;;;;-5.89;72.68;97651.74;1805398;77;32530;-85
2020/12/01 07:30:16;;;;;;;138.35;59.38;;;;;;;-5.84;72.65;97652.25;1808618;77;25783;-85
2020/12/01 07:33:01;;;;;;;141.22;58.95;;;;;;;-5.79;72.69;97650.13;1808323;77;28653;-81
2020/12/01 07:35:49;;;;;;;148.75;60.15;;;;;;;-5.72;72.76;97656.67;1809364;77;25737;-80
2020/12/01 07:38:39;;;;;;;145.12;62.48;;;;;;;-5.67;72.71;97651.92;1812200;77;25924;-83
2020/12/01 07:41:27;;;;;;;151.55;61.37;;;;;;;-5.66;72.68;97653.61;1820752;77;26386;-81
2020/12/01 07:44:05;;;;;;;141.18;61.77;;;;;;;-5.64;72.78;97646.47;1815275;77;25882;-82
2020/12/01 07:46:46;;;;;;;154.07;63.90;;;;;;;-5.56;72.82;97653.84;1802219;77;28442;-82
2020/12/01 07:49:12;;;;;;;136.85;59.42;;;;;;;-5.48;72.82;97657.62;1821196;77;25691;-81
2020/12/01 07:51:40;;;;;;;146.47;58.68;;;;;;;-5.42;72.76;97650.23;1811165;77;25772;-81
2020/12/01 07:54:08;;;;;;;143.80;62.15;;;;;;;-5.31;72.79;97650.36;1825456;77;25720;-81
2020/12/01 07:56:39;;;;;;;135.52;58.58;;;;;;;-5.21;72.79;97650.07;1833177;77;25764;-82
2020/12/01 07:59:10;;;;;;;139.75;59.53;;;;;;;-5.08;72.76;97649.58;1820509;77;27503;-84
2020/12/01 08:01:38;;;;;;;143.87;59.13;;;;;;;-4.99;72.70;97646.75;1811517;77;31373;-82
2020/12/01 08:04:13;;;;;;;142.80;62.35;;;;;;;-4.93;72.59;97652.41;1829977;77;26249;-82
2020/12/01 08:06:42;;;;;;;145.80;63.60;;;;;;;-4.81;72.68;97647.58;1836279;77;26673;-82
2020/12/01 08:09:25;;;;;;;141.77;63.83;;;;;;;-4.67;72.63;97650.53;1822304;77;26313;-82
2020/12/01 08:12:02;;;;;;;138.43;61.75;;;;;;;-4.57;72.51;97657.28;1821637;77;27534;-82
2020/12/01 08:14:31;;;;;;;143.62;65.05;;;;;;;-4.50;72.49;97651.95;1829013;77;25690;-81
2020/12/01 08:19:55;;;;;;;137.50;60.78;;;;;;;-4.21;72.53;97640.56;1860730;76;34755;-85
2020/12/01 08:22:30;;;;;;;139.28;60.65;;;;;;;-4.10;72.70;97651.14;1830926;76;25728;-86
2020/12/01 08:25:03;;;;;;;126.85;59.10;;;;;;;-3.91;73.01;97651.45;1827533;77;27496;-82
2020/12/01 08:28:07;;;;;;;149.23;63.60;;;;;;;-3.73;72.70;97651.84;1844168;77;25681;-87
2020/12/01 08:31:07;;;;;;;149.20;64.82;;;;;;;-3.60;72.53;97645.98;1837394;76;25864;-82
2020/12/01 08:33:46;;;;;;;159.55;66.82;;;;;;;-3.41;72.48;97642.79;1787039;78;26011;-82
2020/12/01 08:36:37;;;;;;;146.65;61.00;;;;;;;-3.28;72.20;97637.76;1842783;77;26399;-82
2020/12/01 08:39:28;;;;;;;135.95;57.53;;;;;;;-3.15;72.24;97638.12;1852239;76;27697;-83
2020/12/01 08:42:10;;;;;;;131.80;59.48;;;;;;;-2.95;72.34;97649.25;1852115;76;25707;-82
2020/12/01 08:44:46;;;;;;;93.50;42.27;;;;;;;-2.72;72.46;97639.02;1825728;76;25804;-84
2020/12/01 08:47:14;;;;;;;136.00;55.80;;;;;;;-2.47;72.37;97642.31;1772688;79;25739;-84
2020/12/01 08:49:45;;;;;;;124.50;54.60;;;;;;;-2.25;72.20;97648.84;1780909;80;26737;-84
2020/12/01 08:52:41;;;;;;;103.75;44.13;;;;;;;-2.07;71.93;97642.05;1816731;78;27502;-82
2020/12/01 08:55:28;;;;;;;129.03;55.03;;;;;;;-1.86;71.66;97642.91;1784266;78;26104;-83
2020/12/01 08:58:10;;;;;;;127.85;56.75;;;;;;;-1.63;71.57;97641.44;1770816;78;26570;-81
2020/12/01 09:00:37;;;;;;;121.45;53.13;;;;;;;-1.45;71.29;97639.38;1794017;79;25873;-81
2020/12/01 09:03:11;;;;;;;149.20;67.27;;;;;;;-1.33;71.11;97629.58;1790095;78;25689;-82
2020/12/01 09:05:48;;;;;;;162.72;71.65;;;;;;;-1.20;70.89;97637.27;1763755;78;27497;-82
2020/12/01 09:08:46;;;;;;;150.10;64.45;;;;;;;-1.11;70.67;97637.34;1789806;79;25809;-82
2020/12/01 09:11:53;;;;;;;139.70;64.17;;;;;;;-1.05;70.21;97624.52;1793630;78;25734;-83
2020/12/01 09:14:23;;;;;;;144.20;63.28;;;;;;;-0.94;70.27;97624.41;1777133;78;26275;-83
2020/12/01 09:16:56;;;;;;;134.25;59.93;;;;;;;-0.72;70.20;97621.05;1762446;78;25779;-82
2020/12/01 09:19:57;;;;;;;132.87;59.15;;;;;;;-0.51;70.11;97619.66;1784269;78;28747;-82
2020/12/01 09:22:37;;;;;;;131.87;59.75;;;;;;;-0.30;69.83;97625.32;1787314;80;25814;-82
2020/12/01 09:25:18;;;;;;;137.68;58.90;;;;;;;-0.26;69.35;97616.13;1768802;80;25894;-81
2020/12/01 09:27:51;;;;;;;130.70;57.25;;;;;;;-0.17;69.39;97625.89;1765394;80;25889;-83
2020/12/01 09:30:34;;;;;;;105.75;50.55;;;;;;;-0.11;69.30;97626.16;1766688;78;25767;-83
2020/12/01 09:33:04;;;;;;;93.97;43.02;;;;;;;0.05;69.31;97622.95;1723414;81;28707;-83
2020/12/01 09:35:31;;;;;;;95.77;45.08;;;;;;;0.24;69.13;97624.25;1753977;80;26124;-84
2020/12/01 09:37:59;;;;;;;110.45;48.98;;;;;;;0.40;68.99;97621.02;1741095;81;26284;-84
2020/12/01 09:40:28;;;;;;;110.78;50.67;;;;;;;0.55;69.14;97618.75;1756119;80;25819;-83
2020/12/01 09:42:59;;;;;;;108.55;50.28;;;;;;;0.75;68.95;97617.70;1768814;80;25991;-83
2020/12/01 09:45:27;;;;;;;111.70;51.55;;;;;;;0.90;68.48;97602.13;1744243;81;27513;-84
2020/12/01 09:48:00;;;;;;;115.05;53.48;;;;;;;1.04;68.33;97597.17;1755660;81;25738;-84
2020/12/01 09:50:32;;;;;;;118.53;55.10;;;;;;;1.23;68.16;97595.38;1758736;80;35670;-83
2020/12/01 09:53:16;;;;;;;108.63;49.75;;;;;;;1.31;67.67;97586.19;1743704;80;26055;-84
2020/12/01 10:10:21;;;;;;;51.85;26.65;;;;;;;2.31;66.79;97576.12;1734012;80;25742;-85
2020/12/01 10:12:53;;;;;;;61.30;33.35;;;;;;;2.40;66.30;97567.22;1763809;78;27491;-84
2020/12/01 10:15:39;;;;;;;59.23;30.45;;;;;;;2.62;66.06;97569.84;1755677;81;25715;-85
2020/12/01 10:35:22;;;;;;;38.33;22.50;;;;;;;4.49;62.82;97559.06;1754486;80;25806;-85
2020/12/01 10:37:57;;;;;;;36.83;20.37;;;;;;;4.56;62.77;97560.06;1733236;81;25913;-84
2020/12/01 10:40:27;;;;;;;36.03;20.35;;;;;;;4.59;62.32;97553.02;1763404;81;28353;-84
2020/12/01 10:42:55;;;;;;;34.03;20.70;;;;;;;4.78;62.18;97551.83;1772283;80;25800;-85
2020/12/01 10:45:25;;;;;;;35.68;17.85;;;;;;;5.03;62.27;97560.11;1765399;81;25780;-85
2020/12/01 10:47:53;;;;;;;31.23;18.05;;;;;;;5.13;61.09;97555.05;1770903;80;26403;-85
2020/12/01 10:50:25;;;;;;;30.62;17.73;;;;;;;5.23;61.30;97546.30;1765534;81;25777;-84
2020/12/01 10:52:53;;;;;;;30.40;18.12;;;;;;;5.48;61.33;97543.83;1769742;80;27538;-84
2020/12/01 10:55:24;;;;;;;27.25;16.17;;;;;;;5.70;61.05;97543.52;1781106;80;26327;-84
2020/12/01 10:57:54;;;;;;;31.23;17.85;;;;;;;5.87;60.49;97549.11;1763848;81;25655;-84
2020/12/01 11:00:25;;;;;;;32.42;16.70;;;;;;;6.06;60.13;97543.30;1762503;81;25766;-85
2020/12/01 11:02:53;;;;;;;25.95;14.40;;;;;;;5.92;59.65;97538.70;1767174;80;25762;-85
2020/12/01 11:05:31;;;;;;;25.77;14.53;;;;;;;6.01;59.40;97540.34;1740944;81;27576;-86
2020/12/01 11:07:59;;;;;;;37.50;18.95;;;;;;;6.06;59.18;97539.27;1762142;81;25853;-85
2020/12/01 11:10:28;;;;;;;40.67;19.07;;;;;;;6.01;59.59;97552.39;1740914;81;25339;-84
2020/12/01 11:12:56;;;;;;;31.60;16.80;;;;;;;6.08;59.07;97557.35;1761735;81;26549;-84
2020/12/01 11:15:23;;;;;;;23.73;14.90;;;;;;;6.20;58.59;97552.40;1762061;81;25770;-84
2020/12/01 11:17:51;;;;;;;28.40;15.83;;;;;;;6.28;58.40;97546.16;1762303;81;27493;-85
2020/12/01 11:20:20;;;;;;;29.45;15.63;;;;;;;6.44;58.12;97544.65;1770353;80;25864;-85
2020/12/01 11:22:49;;;;;;;22.52;14.53;;;;;;;6.54;57.81;97551.09;1765613;80;25773;-85
2020/12/01 11:25:19;;;;;;;19.25;12.37;;;;;;;6.69;57.75;97541.22;1770498;80;25777;-84
2020/12/01 11:27:47;;;;;;;21.23;13.32;;;;;;;6.68;57.54;97543.06;1756597;81;25790;-85
2020/12/01 11:30:18;;;;;;;23.27;13.90;;;;;;;6.71;56.94;97540.02;1736952;81;27553;-85
2020/12/01 11:32:45;;;;;;;22.70;14.63;;;;;;;6.61;56.46;97537.29;1728671;81;25701;-84
2020/12/01 11:35:14;;;;;;;19.55;12.82;;;;;;;6.71;56.69;97538.69;1772832;79;25810;-84
2020/12/01 11:37:42;;;;;;;23.50;13.83;;;;;;;6.83;56.37;97546.60;1750373;80;25770;-84
2020/12/01 11:40:10;;;;;;;21.30;12.55;;;;;;;6.85;56.05;97542.39;1785378;79;25731;-84
2020/12/01 11:42:38;;;;;;;29.07;14.47;;;;;;;6.68;55.58;97543.57;1772482;80;27621;-85
2020/12/01 11:45:10;;;;;;;25.10;14.55;;;;;;;6.60;55.72;97539.14;1739919;81;26251;-83
2020/12/01 11:47:38;;;;;;;22.32;13.80;;;;;;;6.59;55.58;97536.12;1746855;79;25817;-83
2020/12/01 11:50:09;;;;;;;23.15;14.28;;;;;;;6.36;55.49;97537.52;1753947;79;26218;-83
2020/12/01 11:52:37;;;;;;;22.50;13.70;;;;;;;6.44;55.42;97536.09;1756154;80;26352;-83
2020/12/01 11:55:08;;;;;;;24.40;14.68;;;;;;;6.41;55.22;97532.43;1756754;80;27501;-82
2020/12/01 11:57:35;;;;;;;25.82;15.05;;;;;;;6.47;55.01;97532.22;1760749;79;25753;-83
2020/12/01 12:00:06;;;;;;;22.27;13.98;;;;;;;6.38;54.68;97538.69;1745033;80;25776;-84
2020/12/01 12:02:33;;;;;;;24.63;13.85;;;;;;;6.48;54.91;97534.73;1743289;79;26150;-83
2020/12/01 12:05:01;;;;;;;23.40;13.72;;;;;;;6.45;54.78;97532.41;1747644;80;26412;-83
2020/12/01 12:07:28;;;;;;;26.82;15.48;;;;;;;6.48;54.42;97535.23;1743164;80;28368;-83
2020/12/01 12:09:56;;;;;;;24.50;14.83;;;;;;;6.35;54.00;97531.00;1758831;80;25664;-83
2020/12/01 12:12:23;;;;;;;25.77;15.03;;;;;;;6.30;54.49;97531.53;1749393;80;25788;-83
2020/12/01 12:14:50;;;;;;;24.37;15.10;;;;;;;6.45;54.90;97528.88;1742734;79;25765;-83
2020/12/01 12:17:18;;;;;;;25.77;15.15;;;;;;;6.30;53.55;97526.67;1742070;80;26449;-83
2020/12/01 12:19:45;;;;;;;28.15;15.28;;;;;;;5.85;53.45;97522.17;1763500;80;27504;-83
2020/12/01 12:22:12;;;;;;;26.40;15.68;;;;;;;5.70;53.86;97514.06;1779452;79;25700;-83
2020/12/01 12:24:40;;;;;;;26.35;16.40;;;;;;;5.68;54.22;97514.73;1765234;80;25764;-83